Diamond Orchid — 9VNH4 — position and weather

sailwx.info

Track history (hours):
 
Tides and Currents Weather Stations Pressure Air Temp Water Temp Dewpoint Dewpoint Depression Visibility Wind Speed Wind Dir Waves Ship Positions

Diamond Orchid

Last reported at 2014-Dec-17 20:23 UTC. Time now 2014-Dec-20 22:59 UTC.
Position N 22°54' E 119°59'.

Length 144 m; draft 6 m.

Type: Tanker. MMSI: 565789000.

Date/timePositionNaut miles runAvg speedWind from/ knotsBaromVisibWave heightAir tempDewpointWater temp
2014-Dec-17 20:23N 22°54' E 119°59'1215.1
2014-Dec-17 19:33N 22°43' E 120°05'1212.4
2014-Dec-17 18:33N 22°37' E 120°17'2 1.9
2014-Dec-17 17:19N 22°35' E 120°18'0 0.0
2014-Dec-17 16:31N 22°35' E 120°18'0 0.0
2014-Dec-17 15:31N 22°35' E 120°18'0 0.0
2014-Dec-17 14:31N 22°35' E 120°18'0 0.0
2014-Dec-17 11:13N 22°35' E 120°18'0 0.0
2014-Dec-17 10:25N 22°35' E 120°18'0 0.0
2014-Dec-17 09:31N 22°35' E 120°18'0 0.0
2014-Dec-17 08:31N 22°35' E 120°18'0 0.0
2014-Dec-17 07:25N 22°35' E 120°18'0 0.0
2014-Dec-17 06:31N 22°35' E 120°18'0 0.0
2014-Dec-17 05:31N 22°35' E 120°18'0 0.0
2014-Dec-17 04:19N 22°35' E 120°18'0 0.0
2014-Dec-17 03:13N 22°35' E 120°18'0 0.0
2014-Dec-17 02:31N 22°35' E 120°18'0 0.0
2014-Dec-17 01:31N 22°35' E 120°18'0 0.0
2014-Dec-17 00:31N 22°35' E 120°18'0 0.0
2014-Dec-16 23:25N 22°35' E 120°18'0 0.0
2014-Dec-16 22:31N 22°35' E 120°18'2 2.1
2014-Dec-16 21:33N 22°36' E 120°17'3 3.2
2014-Dec-16 20:28N 22°36' E 120°13'0 0.1
2014-Dec-16 19:28N 22°36' E 120°13'0 0.0
2014-Dec-16 18:28N 22°36' E 120°13'0 0.0
2014-Dec-16 17:28N 22°36' E 120°13'0 0.1
2014-Dec-16 16:28N 22°36' E 120°13'0 0.1
2014-Dec-16 15:28N 22°36' E 120°13'0 0.0
2014-Dec-16 14:33N 22°36' E 120°13'0 0.0
2014-Dec-16 13:33N 22°36' E 120°13'0 0.0
2014-Dec-16 12:33N 22°36' E 120°13'0 0.0
2014-Dec-16 11:33N 22°36' E 120°13'1 0.7
2014-Dec-16 10:33N 22°36' E 120°12'1312.8
2014-Dec-16 09:33N 22°45' E 120°02'1413.3
2014-Dec-16 08:31N 22°54' E 119°52'50512.6
2014-Dec-14 16:33N 31°02' E 122°20'1110.8
2014-Dec-14 15:33N 31°03' E 122°07'1010.3
2014-Dec-14 14:32N 31°07' E 121°56'1414.4
2014-Dec-14 13:34N 31°17' E 121°44'1211.8
2014-Dec-14 12:33N 31°24' E 121°33'8 8.3
2014-Dec-14 11:34N 31°29' E 121°26'1212.4
2014-Dec-14 10:33N 31°38' E 121°15'1211.6
2014-Dec-14 09:33N 31°45' E 121°05'1211.8
2014-Dec-14 08:33N 31°52' E 120°53'1111.5
2014-Dec-14 07:33N 32°00' E 120°44'1312.5
2014-Dec-14 06:33N 32°04' E 120°30'1312.6
2014-Dec-14 05:33N 31°57' E 120°18'1312.5
2014-Dec-14 04:33N 31°58' E 120°03'1714.1
2014-Dec-14 03:21N 32°12' E 119°53'1 0.0
2014-Dec-12 03:29N 32°13' E 119°54'1112.2
2014-Dec-12 02:33N 32°02' E 119°57'1111.5
2014-Dec-12 01:34N 31°56' E 120°09'1111.5
2014-Dec-12 00:34N 31°58' E 120°22'9 8.5
2014-Dec-11 23:34N 32°02' E 120°32'1 1.3
2014-Dec-11 22:33N 32°01' E 120°33'0 0.0
2014-Dec-11 21:32N 32°01' E 120°33'0 0.0
2014-Dec-11 20:32N 32°01' E 120°33'0 0.0
2014-Dec-11 19:32N 32°01' E 120°33'0 0.0
2014-Dec-11 18:32N 32°01' E 120°33'0 0.0
2014-Dec-11 17:32N 32°01' E 120°33'0 0.0
2014-Dec-11 16:33N 32°01' E 120°33'0 0.0
2014-Dec-11 15:32N 32°01' E 120°33'0 0.0
2014-Dec-11 14:32N 32°01' E 120°33'0 0.0
2014-Dec-11 13:33N 32°01' E 120°33'4 3.6
2014-Dec-11 12:33N 32°02' E 120°29'4 4.1
2014-Dec-11 11:33N 31°58' E 120°26'0 0.0
2014-Dec-11 10:33N 31°58' E 120°26'0 0.0
2014-Dec-11 09:33N 31°58' E 120°26'0 0.0
2014-Dec-11 08:30N 31°58' E 120°26'0 0.0
2014-Dec-11 07:30N 31°58' E 120°26'0 0.0
2014-Dec-11 06:21N 31°58' E 120°26'0 0.0
2014-Dec-11 05:33N 31°58' E 120°26'0 0.0
2014-Dec-11 04:33N 31°58' E 120°26'0 0.0
2014-Dec-11 03:33N 31°58' E 120°26'0 0.0
2014-Dec-11 02:33N 31°58' E 120°26'0 0.0
2014-Dec-11 01:33N 31°58' E 120°26'0 0.0
2014-Dec-11 00:33N 31°58' E 120°26'0 0.0
2014-Dec-10 23:33N 31°58' E 120°26'0 0.0
2014-Dec-10 22:33N 31°58' E 120°26'0 0.0
2014-Dec-10 21:33N 31°58' E 120°26'0 0.0
2014-Dec-10 20:33N 31°58' E 120°26'0 0.0
2014-Dec-10 19:33N 31°58' E 120°26'0 0.0
2014-Dec-10 18:33N 31°58' E 120°26'0 0.0
2014-Dec-10 17:33N 31°58' E 120°26'0 0.0
2014-Dec-10 16:33N 31°58' E 120°26'0 0.0
2014-Dec-10 15:33N 31°58' E 120°26'0 0.0
2014-Dec-10 14:33N 31°58' E 120°26'0 0.0
2014-Dec-10 13:33N 31°58' E 120°26'0 0.0
2014-Dec-10 12:30N 31°58' E 120°26'0 0.0
2014-Dec-10 11:33N 31°58' E 120°26'0 0.0
2014-Dec-10 10:33N 31°58' E 120°26'0 0.0
2014-Dec-10 09:33N 31°58' E 120°26'0 0.0
2014-Dec-10 08:33N 31°58' E 120°26'0 0.0
2014-Dec-10 07:33N 31°58' E 120°26'0 0.0
2014-Dec-10 06:33N 31°58' E 120°26'0 0.0
2014-Dec-10 05:33N 31°58' E 120°26'0 0.0
2014-Dec-10 04:33N 31°58' E 120°26'3 2.6
2014-Dec-10 03:33N 32°01' E 120°27'10 9.6
2014-Dec-10 02:33N 31°60' E 120°38'1110.6
2014-Dec-10 01:33N 31°59' E 120°50'1111.5
2014-Dec-10 00:33N 31°48' E 120°55'10 9.8
2014-Dec-09 23:33N 31°45' E 121°06'10 9.8
2014-Dec-09 22:33N 31°38' E 121°15'7 6.5
2014-Dec-09 21:33N 31°34' E 121°21'0 0.1
2014-Dec-09 20:33N 31°34' E 121°21'0 0.0
2014-Dec-09 19:33N 31°34' E 121°21'0 0.1
2014-Dec-09 18:33N 31°34' E 121°21'0 0.1
2014-Dec-09 17:33N 31°34' E 121°21'0 0.2
2014-Dec-09 16:33N 31°34' E 121°21'0 0.1
2014-Dec-09 15:33N 31°34' E 121°21'0 0.0
2014-Dec-09 14:33N 31°34' E 121°21'0 0.0
2014-Dec-09 13:33N 31°34' E 121°21'0 0.0
2014-Dec-09 12:33N 31°34' E 121°21'0 0.0
2014-Dec-09 11:33N 31°34' E 121°21'0 0.0
2014-Dec-09 10:33N 31°34' E 121°21'1 1.5
2014-Dec-09 09:33N 31°33' E 121°21'1010.5
2014-Dec-09 08:33N 31°26' E 121°30'8 8.1
2014-Dec-09 07:33N 31°22' E 121°38'1111.0
2014-Dec-09 06:33N 31°17' E 121°50'1311.9
2014-Dec-09 05:28N 31°14' E 122°05'1111.9
2014-Dec-09 04:33N 31°08' E 122°15'10 9.8
2014-Dec-09 03:32N 31°08' E 122°27'  
Track history (hours):
 
Tides and Currents Weather Stations Pressure Air Temp Water Temp Dewpoint Dewpoint Depression Visibility Wind Speed Wind Dir Waves Ship Positions

Diamond Orchid

Last reported at 2014-Dec-17 20:23 UTC. Time now 2014-Dec-20 22:59 UTC.
Position N 22°54' E 119°59'.

Length 144 m; draft 6 m.

Type: Tanker. MMSI: 565789000.

Date/timePositionNaut miles runAvg speedWind from/ knotsBaromVisibWave heightAir tempDewpointWater temp
2014-Dec-17 20:23N 22°54' E 119°59'1215.1
2014-Dec-17 19:33N 22°43' E 120°05'1212.4
2014-Dec-17 18:33N 22°37' E 120°17'2 1.9
2014-Dec-17 17:19N 22°35' E 120°18'0 0.0
2014-Dec-17 16:31N 22°35' E 120°18'0 0.0
2014-Dec-17 15:31N 22°35' E 120°18'0 0.0
2014-Dec-17 14:31N 22°35' E 120°18'0 0.0
2014-Dec-17 11:13N 22°35' E 120°18'0 0.0
2014-Dec-17 10:25N 22°35' E 120°18'0 0.0
2014-Dec-17 09:31N 22°35' E 120°18'0 0.0
2014-Dec-17 08:31N 22°35' E 120°18'0 0.0
2014-Dec-17 07:25N 22°35' E 120°18'0 0.0
2014-Dec-17 06:31N 22°35' E 120°18'0 0.0
2014-Dec-17 05:31N 22°35' E 120°18'0 0.0
2014-Dec-17 04:19N 22°35' E 120°18'0 0.0
2014-Dec-17 03:13N 22°35' E 120°18'0 0.0
2014-Dec-17 02:31N 22°35' E 120°18'0 0.0
2014-Dec-17 01:31N 22°35' E 120°18'0 0.0
2014-Dec-17 00:31N 22°35' E 120°18'0 0.0
2014-Dec-16 23:25N 22°35' E 120°18'0 0.0
2014-Dec-16 22:31N 22°35' E 120°18'2 2.1
2014-Dec-16 21:33N 22°36' E 120°17'3 3.2
2014-Dec-16 20:28N 22°36' E 120°13'0 0.1
2014-Dec-16 19:28N 22°36' E 120°13'0 0.0
2014-Dec-16 18:28N 22°36' E 120°13'0 0.0
2014-Dec-16 17:28N 22°36' E 120°13'0 0.1
2014-Dec-16 16:28N 22°36' E 120°13'0 0.1
2014-Dec-16 15:28N 22°36' E 120°13'0 0.0
2014-Dec-16 14:33N 22°36' E 120°13'0 0.0
2014-Dec-16 13:33N 22°36' E 120°13'0 0.0
2014-Dec-16 12:33N 22°36' E 120°13'0 0.0
2014-Dec-16 11:33N 22°36' E 120°13'1 0.7
2014-Dec-16 10:33N 22°36' E 120°12'1312.8
2014-Dec-16 09:33N 22°45' E 120°02'1413.3
2014-Dec-16 08:31N 22°54' E 119°52'50512.6
2014-Dec-14 16:33N 31°02' E 122°20'1110.8
2014-Dec-14 15:33N 31°03' E 122°07'1010.3
2014-Dec-14 14:32N 31°07' E 121°56'1414.4
2014-Dec-14 13:34N 31°17' E 121°44'1211.8
2014-Dec-14 12:33N 31°24' E 121°33'8 8.3
2014-Dec-14 11:34N 31°29' E 121°26'1212.4
2014-Dec-14 10:33N 31°38' E 121°15'1211.6
2014-Dec-14 09:33N 31°45' E 121°05'1211.8
2014-Dec-14 08:33N 31°52' E 120°53'1111.5
2014-Dec-14 07:33N 32°00' E 120°44'1312.5
2014-Dec-14 06:33N 32°04' E 120°30'1312.6
2014-Dec-14 05:33N 31°57' E 120°18'1312.5
2014-Dec-14 04:33N 31°58' E 120°03'1714.1
2014-Dec-14 03:21N 32°12' E 119°53'1 0.0
2014-Dec-12 03:29N 32°13' E 119°54'1112.2
2014-Dec-12 02:33N 32°02' E 119°57'1111.5
2014-Dec-12 01:34N 31°56' E 120°09'1111.5
2014-Dec-12 00:34N 31°58' E 120°22'9 8.5
2014-Dec-11 23:34N 32°02' E 120°32'1 1.3
2014-Dec-11 22:33N 32°01' E 120°33'0 0.0
2014-Dec-11 21:32N 32°01' E 120°33'0 0.0
2014-Dec-11 20:32N 32°01' E 120°33'0 0.0
2014-Dec-11 19:32N 32°01' E 120°33'0 0.0
2014-Dec-11 18:32N 32°01' E 120°33'0 0.0
2014-Dec-11 17:32N 32°01' E 120°33'0 0.0
2014-Dec-11 16:33N 32°01' E 120°33'0 0.0
2014-Dec-11 15:32N 32°01' E 120°33'0 0.0
2014-Dec-11 14:32N 32°01' E 120°33'0 0.0
2014-Dec-11 13:33N 32°01' E 120°33'4 3.6
2014-Dec-11 12:33N 32°02' E 120°29'4 4.1
2014-Dec-11 11:33N 31°58' E 120°26'0 0.0
2014-Dec-11 10:33N 31°58' E 120°26'0 0.0
2014-Dec-11 09:33N 31°58' E 120°26'0 0.0
2014-Dec-11 08:30N 31°58' E 120°26'0 0.0
2014-Dec-11 07:30N 31°58' E 120°26'0 0.0
2014-Dec-11 06:21N 31°58' E 120°26'0 0.0
2014-Dec-11 05:33N 31°58' E 120°26'0 0.0
2014-Dec-11 04:33N 31°58' E 120°26'0 0.0
2014-Dec-11 03:33N 31°58' E 120°26'0 0.0
2014-Dec-11 02:33N 31°58' E 120°26'0 0.0
2014-Dec-11 01:33N 31°58' E 120°26'0 0.0
2014-Dec-11 00:33N 31°58' E 120°26'0 0.0
2014-Dec-10 23:33N 31°58' E 120°26'0 0.0
2014-Dec-10 22:33N 31°58' E 120°26'0 0.0
2014-Dec-10 21:33N 31°58' E 120°26'0 0.0
2014-Dec-10 20:33N 31°58' E 120°26'0 0.0
2014-Dec-10 19:33N 31°58' E 120°26'0 0.0
2014-Dec-10 18:33N 31°58' E 120°26'0 0.0
2014-Dec-10 17:33N 31°58' E 120°26'0 0.0
2014-Dec-10 16:33N 31°58' E 120°26'0 0.0
2014-Dec-10 15:33N 31°58' E 120°26'0 0.0
2014-Dec-10 14:33N 31°58' E 120°26'0 0.0
2014-Dec-10 13:33N 31°58' E 120°26'0 0.0
2014-Dec-10 12:30N 31°58' E 120°26'0 0.0
2014-Dec-10 11:33N 31°58' E 120°26'0 0.0
2014-Dec-10 10:33N 31°58' E 120°26'0 0.0
2014-Dec-10 09:33N 31°58' E 120°26'0 0.0
2014-Dec-10 08:33N 31°58' E 120°26'0 0.0
2014-Dec-10 07:33N 31°58' E 120°26'0 0.0
2014-Dec-10 06:33N 31°58' E 120°26'0 0.0
2014-Dec-10 05:33N 31°58' E 120°26'0 0.0
2014-Dec-10 04:33N 31°58' E 120°26'3 2.6
2014-Dec-10 03:33N 32°01' E 120°27'10 9.6
2014-Dec-10 02:33N 31°60' E 120°38'1110.6
2014-Dec-10 01:33N 31°59' E 120°50'1111.5
2014-Dec-10 00:33N 31°48' E 120°55'10 9.8
2014-Dec-09 23:33N 31°45' E 121°06'10 9.8
2014-Dec-09 22:33N 31°38' E 121°15'7 6.5
2014-Dec-09 21:33N 31°34' E 121°21'0 0.1
2014-Dec-09 20:33N 31°34' E 121°21'0 0.0
2014-Dec-09 19:33N 31°34' E 121°21'0 0.1
2014-Dec-09 18:33N 31°34' E 121°21'0 0.1
2014-Dec-09 17:33N 31°34' E 121°21'0 0.2
2014-Dec-09 16:33N 31°34' E 121°21'0 0.1
2014-Dec-09 15:33N 31°34' E 121°21'0 0.0
2014-Dec-09 14:33N 31°34' E 121°21'0 0.0
2014-Dec-09 13:33N 31°34' E 121°21'0 0.0
2014-Dec-09 12:33N 31°34' E 121°21'0 0.0
2014-Dec-09 11:33N 31°34' E 121°21'0 0.0
2014-Dec-09 10:33N 31°34' E 121°21'1 1.5
2014-Dec-09 09:33N 31°33' E 121°21'1010.5
2014-Dec-09 08:33N 31°26' E 121°30'8 8.1
2014-Dec-09 07:33N 31°22' E 121°38'1111.0
2014-Dec-09 06:33N 31°17' E 121°50'1311.9
2014-Dec-09 05:28N 31°14' E 122°05'1111.9
2014-Dec-09 04:33N 31°08' E 122°15'10 9.8
2014-Dec-09 03:32N 31°08' E 122°27'  

Dump ship's entire track history